NCR8056 KMCO-KMCO
Flight info
| Callsign | NCR8056 |
|---|---|
| Flight time | 1h 10m |
| Altitude | 41000 |
| Route | RDSOX1 JFRYS PATOY/N0469F400 Q116 JAWJA/N0473F410 IPOKE Q81 BITNY CHIVE PRICY5 |
| Aircraft | B77L/H-SDE1E2E3FGHIJ2J3J4J5M1RWXYZ/LB1D1 |
Departure
| Time | 2026-04-23 03:26 |
|---|---|
| Airport | Orlando International Airport (KMCO) |
Arrival
| Time | 2026-04-23 04:36 |
|---|---|
| Airport | Orlando International Airport (KMCO) |
| Time | Latitude | Longitude | Altitude | Speed | Heading |
|---|---|---|---|---|---|
| 2026-04-23 02:40 | 28.42973 | -81.33128 | 106 ft | 0 kts | 270° |
| 2026-04-23 03:09 | 28.42973 | -81.33118 | 106 ft | 2 kts | 270° |
| 2026-04-23 03:09 | 28.42973 | -81.33100 | 106 ft | 2 kts | 270° |
| 2026-04-23 03:09 | 28.42973 | -81.33083 | 106 ft | 2 kts | 274° |
| 2026-04-23 03:09 | 28.42966 | -81.33070 | 106 ft | 2 kts | 335° |
| 2026-04-23 03:10 | 28.42957 | -81.33067 | 106 ft | 1 kts | 5° |
| 2026-04-23 03:10 | 28.42953 | -81.33067 | 106 ft | 0 kts | 3° |
| 2026-04-23 03:13 | 28.42967 | -81.33065 | 106 ft | 4 kts | 14° |
| 2026-04-23 03:13 | 28.43006 | -81.33039 | 106 ft | 5 kts | 39° |
| 2026-04-23 03:13 | 28.43050 | -81.33001 | 106 ft | 10 kts | 37° |
| 2026-04-23 03:13 | 28.43114 | -81.32951 | 106 ft | 12 kts | 30° |
| 2026-04-23 03:14 | 28.43199 | -81.32929 | 106 ft | 13 kts | 357° |
| 2026-04-23 03:14 | 28.43299 | -81.32930 | 106 ft | 15 kts | 359° |
| 2026-04-23 03:14 | 28.43410 | -81.32932 | 107 ft | 16 kts | 360° |
| 2026-04-23 03:14 | 28.43529 | -81.32931 | 107 ft | 17 kts | 1° |
| 2026-04-23 03:15 | 28.43652 | -81.32928 | 107 ft | 17 kts | 360° |
| 2026-04-23 03:15 | 28.43778 | -81.32932 | 107 ft | 18 kts | 359° |
| 2026-04-23 03:15 | 28.43906 | -81.32933 | 106 ft | 17 kts | 3° |
| 2026-04-23 03:15 | 28.44027 | -81.32895 | 106 ft | 18 kts | 20° |
| 2026-04-23 03:16 | 28.44152 | -81.32867 | 106 ft | 18 kts | 4° |
| 2026-04-23 03:16 | 28.44288 | -81.32866 | 105 ft | 19 kts | 0° |
| 2026-04-23 03:16 | 28.44558 | -81.32870 | 105 ft | 18 kts | 359° |
| 2026-04-23 03:17 | 28.44685 | -81.32871 | 105 ft | 18 kts | 0° |
| 2026-04-23 03:17 | 28.44776 | -81.32868 | 105 ft | 6 kts | 9° |
| 2026-04-23 03:17 | 28.44812 | -81.32836 | 105 ft | 4 kts | 75° |
| 2026-04-23 03:17 | 28.44813 | -81.32828 | 105 ft | 0 kts | 86° |
| 2026-04-23 03:18 | 28.44813 | -81.32824 | 105 ft | 0 kts | 86° |
| 2026-04-23 03:25 | 28.44814 | -81.32811 | 105 ft | 6 kts | 85° |
| 2026-04-23 03:25 | 28.44814 | -81.32735 | 105 ft | 10 kts | 105° |
| 2026-04-23 03:25 | 28.44737 | -81.32698 | 105 ft | 24 kts | 177° |
| 2026-04-23 03:26 | 28.44302 | -81.32692 | 106 ft | 112 kts | 180° |
| 2026-04-23 03:26 | 28.43239 | -81.32700 | 357 ft | 175 kts | 180° |
| 2026-04-23 03:26 | 28.42083 | -81.32722 | 1537 ft | 175 kts | 177° |
| 2026-04-23 03:26 | 28.40812 | -81.32730 | 2371 ft | 198 kts | 178° |
| 2026-04-23 03:27 | 28.39411 | -81.33000 | 3362 ft | 216 kts | 192° |
| 2026-04-23 03:27 | 28.37903 | -81.33563 | 4124 ft | 246 kts | 199° |
| 2026-04-23 03:27 | 28.36288 | -81.34346 | 5188 ft | 260 kts | 203° |
| 2026-04-23 03:27 | 28.34721 | -81.35514 | 6038 ft | 283 kts | 226° |
| 2026-04-23 03:28 | 28.33444 | -81.37206 | 6763 ft | 286 kts | 232° |
| 2026-04-23 03:28 | 28.32196 | -81.38977 | 6916 ft | 284 kts | 232° |
| 2026-04-23 03:28 | 28.30961 | -81.40720 | 6872 ft | 284 kts | 232° |
| 2026-04-23 03:28 | 28.29707 | -81.42420 | 6981 ft | 283 kts | 230° |
| 2026-04-23 03:29 | 28.28436 | -81.44119 | 6998 ft | 282 kts | 234° |
| 2026-04-23 03:29 | 28.27956 | -81.44983 | 6998 ft | 282 kts | 245° |
| 2026-04-23 03:30 | 28.27634 | -81.45991 | 6995 ft | 281 kts | 258° |
| 2026-04-23 03:30 | 28.27539 | -81.46610 | 6993 ft | 280 kts | 266° |
| 2026-04-23 03:32 | 28.27521 | -81.47403 | 7004 ft | 292 kts | 275° |
| 2026-04-23 03:32 | 28.27838 | -81.49720 | 7989 ft | 302 kts | 281° |
| 2026-04-23 03:32 | 28.28208 | -81.52010 | 8748 ft | 291 kts | 282° |
| 2026-04-23 03:33 | 28.28570 | -81.54243 | 8980 ft | 287 kts | 282° |
| 2026-04-23 03:33 | 28.28946 | -81.56548 | 9422 ft | 307 kts | 282° |
| 2026-04-23 03:33 | 28.29322 | -81.58865 | 10881 ft | 300 kts | 281° |
| 2026-04-23 03:33 | 28.29704 | -81.61217 | 11855 ft | 314 kts | 282° |
| 2026-04-23 03:34 | 28.30104 | -81.63681 | 12838 ft | 331 kts | 281° |
| 2026-04-23 03:34 | 28.30530 | -81.66311 | 13875 ft | 347 kts | 281° |
| 2026-04-23 03:34 | 28.30964 | -81.68992 | 15069 ft | 361 kts | 281° |
| 2026-04-23 03:34 | 28.31424 | -81.71838 | 16360 ft | 374 kts | 281° |
| 2026-04-23 03:35 | 28.31892 | -81.74744 | 17636 ft | 385 kts | 281° |
| 2026-04-23 03:35 | 28.32374 | -81.77735 | 19013 ft | 393 kts | 281° |
| 2026-04-23 03:35 | 28.32859 | -81.80753 | 20389 ft | 399 kts | 280° |
| 2026-04-23 03:35 | 28.33355 | -81.83844 | 21742 ft | 404 kts | 281° |
| 2026-04-23 03:36 | 28.33857 | -81.86980 | 23030 ft | 410 kts | 280° |
| 2026-04-23 03:36 | 28.34361 | -81.90131 | 24301 ft | 415 kts | 280° |
| 2026-04-23 03:36 | 28.34874 | -81.93343 | 25568 ft | 420 kts | 280° |
| 2026-04-23 03:36 | 28.35393 | -81.96597 | 26798 ft | 425 kts | 281° |
| 2026-04-23 03:37 | 28.35921 | -81.99919 | 27987 ft | 431 kts | 281° |
| 2026-04-23 03:37 | 28.36451 | -82.03254 | 29202 ft | 435 kts | 281° |
| 2026-04-23 03:37 | 28.36982 | -82.06601 | 29961 ft | 437 kts | 281° |
| 2026-04-23 03:37 | 28.37521 | -82.10003 | 30175 ft | 437 kts | 281° |
| 2026-04-23 03:38 | 28.38606 | -82.16868 | 30701 ft | 455 kts | 281° |
| 2026-04-23 03:38 | 28.39152 | -82.20336 | 32165 ft | 450 kts | 280° |
| 2026-04-23 03:38 | 28.39687 | -82.23738 | 34075 ft | 434 kts | 280° |
| 2026-04-23 03:39 | 28.40202 | -82.27014 | 35771 ft | 422 kts | 280° |
| 2026-04-23 03:39 | 28.40703 | -82.30212 | 37050 ft | 416 kts | 279° |
| 2026-04-23 03:39 | 28.41208 | -82.33434 | 37939 ft | 416 kts | 279° |
| 2026-04-23 03:39 | 28.41712 | -82.36659 | 38549 ft | 420 kts | 280° |
| 2026-04-23 03:40 | 28.42404 | -82.39892 | 39151 ft | 424 kts | 286° |
| 2026-04-23 03:40 | 28.43512 | -82.43042 | 40027 ft | 423 kts | 294° |
| 2026-04-23 03:40 | 28.44967 | -82.45940 | 40779 ft | 424 kts | 301° |
| 2026-04-23 03:40 | 28.46744 | -82.48595 | 41161 ft | 430 kts | 308° |
| 2026-04-23 03:41 | 28.51288 | -82.53101 | 41200 ft | 434 kts | 323° |
| 2026-04-23 03:41 | 28.56547 | -82.56570 | 41202 ft | 442 kts | 326° |
| 2026-04-23 03:42 | 28.61854 | -82.60043 | 41194 ft | 438 kts | 325° |
| 2026-04-23 03:42 | 28.67133 | -82.63544 | 41171 ft | 440 kts | 325° |
| 2026-04-23 03:43 | 28.72436 | -82.67083 | 41185 ft | 439 kts | 325° |
| 2026-04-23 03:43 | 28.77702 | -82.70612 | 41199 ft | 438 kts | 325° |
| 2026-04-23 03:44 | 28.82932 | -82.74126 | 41202 ft | 438 kts | 325° |
| 2026-04-23 03:44 | 28.88180 | -82.77660 | 41203 ft | 441 kts | 324° |
| 2026-04-23 03:45 | 28.93449 | -82.81211 | 41157 ft | 439 kts | 325° |
| 2026-04-23 03:45 | 28.98716 | -82.84768 | 41184 ft | 440 kts | 325° |
| 2026-04-23 03:46 | 29.03989 | -82.88332 | 41165 ft | 440 kts | 325° |
| 2026-04-23 03:46 | 29.09066 | -82.92112 | 41153 ft | 438 kts | 321° |
| 2026-04-23 03:47 | 29.14055 | -82.96190 | 41170 ft | 438 kts | 321° |
| 2026-04-23 03:47 | 29.19016 | -83.00248 | 41156 ft | 438 kts | 321° |
| 2026-04-23 03:48 | 29.23941 | -83.04279 | 41152 ft | 437 kts | 321° |
| 2026-04-23 03:48 | 29.28906 | -83.08347 | 41155 ft | 437 kts | 321° |
| 2026-04-23 03:49 | 29.33843 | -83.12396 | 41150 ft | 437 kts | 321° |
| 2026-04-23 03:49 | 29.38783 | -83.16452 | 41148 ft | 437 kts | 321° |
| 2026-04-23 03:50 | 29.43719 | -83.20510 | 41156 ft | 437 kts | 321° |
| 2026-04-23 03:50 | 29.48647 | -83.24566 | 41170 ft | 436 kts | 321° |
| 2026-04-23 03:51 | 29.53582 | -83.28632 | 41155 ft | 439 kts | 322° |
| 2026-04-23 03:51 | 29.58488 | -83.32829 | 41162 ft | 437 kts | 316° |
| 2026-04-23 03:52 | 29.60566 | -83.35245 | 41117 ft | 422 kts | 309° |
| 2026-04-23 03:52 | 29.62314 | -83.37901 | 40698 ft | 415 kts | 302° |
| 2026-04-23 03:52 | 29.63743 | -83.40785 | 39830 ft | 418 kts | 296° |
| 2026-04-23 03:52 | 29.64830 | -83.43883 | 38757 ft | 425 kts | 288° |
| 2026-04-23 03:53 | 29.65524 | -83.47191 | 38185 ft | 421 kts | 280° |
| 2026-04-23 03:53 | 29.65777 | -83.50482 | 38146 ft | 422 kts | 273° |
| 2026-04-23 03:53 | 29.65070 | -83.57259 | 38139 ft | 434 kts | 258° |
| 2026-04-23 03:54 | 29.62694 | -83.63661 | 38133 ft | 434 kts | 242° |
| 2026-04-23 03:54 | 29.58767 | -83.69102 | 38140 ft | 449 kts | 225° |
| 2026-04-23 03:55 | 29.53593 | -83.73057 | 38138 ft | 451 kts | 209° |
| 2026-04-23 03:55 | 29.47493 | -83.75153 | 38147 ft | 466 kts | 191° |
| 2026-04-23 03:56 | 29.40974 | -83.75061 | 38139 ft | 473 kts | 173° |
| 2026-04-23 03:56 | 29.34679 | -83.72652 | 38160 ft | 480 kts | 155° |
| 2026-04-23 03:57 | 29.29283 | -83.68075 | 38152 ft | 489 kts | 135° |
| 2026-04-23 03:57 | 29.25378 | -83.61752 | 38148 ft | 490 kts | 116° |
| 2026-04-23 03:58 | 29.23332 | -83.54333 | 38154 ft | 492 kts | 103° |
| 2026-04-23 03:58 | 29.20904 | -83.47021 | 38135 ft | 492 kts | 114° |
| 2026-04-23 03:59 | 29.17971 | -83.39992 | 38135 ft | 490 kts | 122° |
| 2026-04-23 03:59 | 29.13613 | -83.34016 | 38132 ft | 487 kts | 141° |
| 2026-04-23 04:00 | 29.08179 | -83.29373 | 38138 ft | 482 kts | 151° |
| 2026-04-23 04:00 | 29.02386 | -83.25589 | 38135 ft | 481 kts | 156° |
| 2026-04-23 04:01 | 28.96354 | -83.22285 | 38144 ft | 479 kts | 159° |
| 2026-04-23 04:01 | 28.90257 | -83.19282 | 38130 ft | 476 kts | 161° |
| 2026-04-23 04:02 | 28.84050 | -83.16402 | 38160 ft | 476 kts | 163° |
| 2026-04-23 04:02 | 28.77798 | -83.14162 | 38131 ft | 467 kts | 176° |
| 2026-04-23 04:03 | 28.71819 | -83.13945 | 38119 ft | 457 kts | 191° |
| 2026-04-23 04:03 | 28.65542 | -83.14861 | 38122 ft | 454 kts | 193° |
| 2026-04-23 04:04 | 28.59295 | -83.15806 | 37868 ft | 447 kts | 193° |
| 2026-04-23 04:04 | 28.56202 | -83.16272 | 37229 ft | 446 kts | 193° |
| 2026-04-23 04:04 | 28.53128 | -83.16737 | 36510 ft | 446 kts | 193° |
| 2026-04-23 04:05 | 28.50079 | -83.17197 | 35803 ft | 446 kts | 193° |
| 2026-04-23 04:05 | 28.46972 | -83.17666 | 35094 ft | 446 kts | 193° |
| 2026-04-23 04:05 | 28.43884 | -83.18131 | 34333 ft | 447 kts | 194° |
| 2026-04-23 04:05 | 28.40810 | -83.18594 | 33575 ft | 449 kts | 194° |
| 2026-04-23 04:06 | 28.37635 | -83.19076 | 32782 ft | 471 kts | 194° |
| 2026-04-23 04:06 | 28.34372 | -83.19569 | 31817 ft | 475 kts | 193° |
| 2026-04-23 04:06 | 28.31068 | -83.20063 | 30893 ft | 476 kts | 193° |
| 2026-04-23 04:06 | 28.27850 | -83.20543 | 30315 ft | 469 kts | 193° |
| 2026-04-23 04:07 | 28.24639 | -83.21020 | 29824 ft | 460 kts | 194° |
| 2026-04-23 04:07 | 28.21489 | -83.21488 | 29306 ft | 452 kts | 194° |
| 2026-04-23 04:07 | 28.18403 | -83.21948 | 28778 ft | 445 kts | 193° |
| 2026-04-23 04:07 | 28.15355 | -83.22404 | 28239 ft | 438 kts | 193° |
| 2026-04-23 04:08 | 28.12360 | -83.22851 | 27702 ft | 433 kts | 193° |
| 2026-04-23 04:08 | 28.09313 | -83.23311 | 27145 ft | 445 kts | 193° |
| 2026-04-23 04:08 | 28.06221 | -83.23628 | 26543 ft | 449 kts | 186° |
| 2026-04-23 04:08 | 28.03110 | -83.23385 | 25945 ft | 450 kts | 175° |
| 2026-04-23 04:09 | 28.00080 | -83.22555 | 25343 ft | 450 kts | 165° |
| 2026-04-23 04:09 | 27.97192 | -83.21146 | 24772 ft | 449 kts | 155° |
| 2026-04-23 04:09 | 27.94589 | -83.19231 | 24262 ft | 446 kts | 144° |
| 2026-04-23 04:09 | 27.92319 | -83.16833 | 24013 ft | 448 kts | 134° |
| 2026-04-23 04:10 | 27.90435 | -83.14048 | 23785 ft | 452 kts | 123° |
| 2026-04-23 04:10 | 27.88972 | -83.10904 | 23569 ft | 449 kts | 113° |
| 2026-04-23 04:10 | 27.88008 | -83.07558 | 23389 ft | 447 kts | 103° |
| 2026-04-23 04:10 | 27.87554 | -83.04125 | 23193 ft | 446 kts | 92° |
| 2026-04-23 04:11 | 27.87570 | -83.00635 | 23009 ft | 443 kts | 86° |
| 2026-04-23 04:11 | 27.87709 | -82.97147 | 22826 ft | 443 kts | 86° |
| 2026-04-23 04:11 | 27.87816 | -82.93700 | 22619 ft | 442 kts | 87° |
| 2026-04-23 04:11 | 27.87893 | -82.90219 | 22442 ft | 440 kts | 88° |
| 2026-04-23 04:12 | 27.87946 | -82.86789 | 22284 ft | 438 kts | 88° |
| 2026-04-23 04:12 | 27.87982 | -82.83372 | 22095 ft | 438 kts | 88° |
| 2026-04-23 04:12 | 27.88007 | -82.79916 | 21900 ft | 437 kts | 88° |
| 2026-04-23 04:12 | 27.88023 | -82.76498 | 21714 ft | 435 kts | 88° |
| 2026-04-23 04:13 | 27.88034 | -82.73102 | 21525 ft | 433 kts | 89° |
| 2026-04-23 04:13 | 27.88039 | -82.69679 | 21328 ft | 432 kts | 89° |
| 2026-04-23 04:13 | 27.88039 | -82.66313 | 21132 ft | 431 kts | 89° |
| 2026-04-23 04:13 | 27.88002 | -82.62962 | 20882 ft | 429 kts | 90° |
| 2026-04-23 04:14 | 27.87953 | -82.59580 | 20606 ft | 428 kts | 90° |
| 2026-04-23 04:14 | 27.87903 | -82.56234 | 20346 ft | 425 kts | 90° |
| 2026-04-23 04:14 | 27.87854 | -82.52925 | 20088 ft | 423 kts | 90° |
| 2026-04-23 04:14 | 27.87803 | -82.49593 | 19830 ft | 420 kts | 90° |
| 2026-04-23 04:15 | 27.87752 | -82.46307 | 19582 ft | 418 kts | 90° |
| 2026-04-23 04:15 | 27.87826 | -82.43049 | 19341 ft | 412 kts | 82° |
| 2026-04-23 04:15 | 27.89350 | -82.37067 | 18921 ft | 390 kts | 64° |
| 2026-04-23 04:16 | 27.90445 | -82.34279 | 18730 ft | 391 kts | 64° |
| 2026-04-23 04:16 | 27.91568 | -82.31450 | 18544 ft | 388 kts | 63° |
| 2026-04-23 04:16 | 27.92672 | -82.28676 | 18350 ft | 388 kts | 63° |
| 2026-04-23 04:16 | 27.93788 | -82.25879 | 18153 ft | 386 kts | 63° |
| 2026-04-23 04:17 | 27.94887 | -82.23126 | 17856 ft | 385 kts | 63° |
| 2026-04-23 04:17 | 27.95982 | -82.20383 | 17627 ft | 381 kts | 63° |
| 2026-04-23 04:17 | 27.97073 | -82.17653 | 17425 ft | 380 kts | 63° |
| 2026-04-23 04:17 | 27.98160 | -82.14932 | 17243 ft | 379 kts | 63° |
| 2026-04-23 04:18 | 27.99235 | -82.12241 | 17056 ft | 377 kts | 64° |
| 2026-04-23 04:18 | 28.00323 | -82.09515 | 16878 ft | 377 kts | 64° |
| 2026-04-23 04:18 | 28.01397 | -82.06821 | 16704 ft | 375 kts | 64° |
| 2026-04-23 04:18 | 28.02464 | -82.04144 | 16524 ft | 373 kts | 64° |
| 2026-04-23 04:19 | 28.03523 | -82.01485 | 16338 ft | 363 kts | 64° |
| 2026-04-23 04:19 | 28.04529 | -81.98955 | 16171 ft | 350 kts | 63° |
| 2026-04-23 04:19 | 28.05520 | -81.96462 | 15989 ft | 338 kts | 63° |
| 2026-04-23 04:19 | 28.06488 | -81.94070 | 15733 ft | 332 kts | 63° |
| 2026-04-23 04:20 | 28.07450 | -81.91717 | 15406 ft | 327 kts | 63° |
| 2026-04-23 04:20 | 28.08391 | -81.89410 | 15098 ft | 322 kts | 63° |
| 2026-04-23 04:20 | 28.09338 | -81.87122 | 14804 ft | 320 kts | 61° |
| 2026-04-23 04:20 | 28.10388 | -81.84881 | 14514 ft | 319 kts | 59° |
| 2026-04-23 04:21 | 28.11440 | -81.82672 | 14224 ft | 316 kts | 59° |
| 2026-04-23 04:21 | 28.12474 | -81.80474 | 13939 ft | 315 kts | 60° |
| 2026-04-23 04:21 | 28.13489 | -81.78301 | 13650 ft | 312 kts | 60° |
| 2026-04-23 04:21 | 28.14493 | -81.76153 | 13380 ft | 309 kts | 60° |
| 2026-04-23 04:22 | 28.15504 | -81.73989 | 13080 ft | 308 kts | 60° |
| 2026-04-23 04:22 | 28.16498 | -81.71857 | 12807 ft | 307 kts | 60° |
| 2026-04-23 04:22 | 28.17487 | -81.69734 | 12580 ft | 305 kts | 60° |
| 2026-04-23 04:22 | 28.18479 | -81.67605 | 12269 ft | 304 kts | 60° |
| 2026-04-23 04:23 | 28.19469 | -81.65479 | 11952 ft | 303 kts | 60° |
| 2026-04-23 04:23 | 28.20452 | -81.63367 | 11677 ft | 299 kts | 60° |
| 2026-04-23 04:23 | 28.21409 | -81.61307 | 11418 ft | 300 kts | 60° |
| 2026-04-23 04:23 | 28.22378 | -81.59222 | 11183 ft | 298 kts | 60° |
| 2026-04-23 04:24 | 28.23346 | -81.57141 | 10841 ft | 296 kts | 60° |
| 2026-04-23 04:24 | 28.24308 | -81.55069 | 10585 ft | 294 kts | 60° |
| 2026-04-23 04:24 | 28.25352 | -81.53100 | 10346 ft | 292 kts | 53° |
| 2026-04-23 04:24 | 28.26529 | -81.51253 | 10093 ft | 285 kts | 52° |
| 2026-04-23 04:25 | 28.27685 | -81.49479 | 9858 ft | 279 kts | 52° |
| 2026-04-23 04:25 | 28.28830 | -81.47716 | 9571 ft | 275 kts | 52° |
| 2026-04-23 04:25 | 28.29968 | -81.45955 | 9219 ft | 273 kts | 52° |
| 2026-04-23 04:25 | 28.31100 | -81.44232 | 8864 ft | 272 kts | 47° |
| 2026-04-23 04:26 | 28.32586 | -81.42966 | 8504 ft | 267 kts | 22° |
| 2026-04-23 04:26 | 28.34372 | -81.42513 | 8124 ft | 267 kts | 5° |
| 2026-04-23 04:26 | 28.36230 | -81.42426 | 7815 ft | 264 kts | 1° |
| 2026-04-23 04:26 | 28.38066 | -81.42413 | 7476 ft | 262 kts | 0° |
| 2026-04-23 04:27 | 28.39869 | -81.42413 | 7153 ft | 261 kts | 0° |
| 2026-04-23 04:27 | 28.41694 | -81.42414 | 6794 ft | 261 kts | 1° |
| 2026-04-23 04:27 | 28.43494 | -81.42415 | 6482 ft | 259 kts | 1° |
| 2026-04-23 04:28 | 28.47082 | -81.42416 | 5887 ft | 256 kts | 1° |
| 2026-04-23 04:28 | 28.48860 | -81.42416 | 5593 ft | 257 kts | 1° |
| 2026-04-23 04:28 | 28.50654 | -81.42416 | 5296 ft | 257 kts | 1° |
| 2026-04-23 04:28 | 28.52449 | -81.42416 | 4999 ft | 258 kts | 1° |
| 2026-04-23 04:29 | 28.54258 | -81.42447 | 4700 ft | 258 kts | 1° |
| 2026-04-23 04:29 | 28.56055 | -81.42484 | 4404 ft | 258 kts | 0° |
| 2026-04-23 04:29 | 28.57843 | -81.42517 | 4111 ft | 257 kts | 1° |
| 2026-04-23 04:29 | 28.59617 | -81.42548 | 4012 ft | 256 kts | 1° |
| 2026-04-23 04:30 | 28.61390 | -81.42571 | 3938 ft | 250 kts | 5° |
| 2026-04-23 04:30 | 28.63018 | -81.42042 | 3706 ft | 241 kts | 34° |
| 2026-04-23 04:30 | 28.64128 | -81.40701 | 3465 ft | 232 kts | 65° |
| 2026-04-23 04:30 | 28.64531 | -81.38950 | 3232 ft | 226 kts | 86° |
| 2026-04-23 04:31 | 28.64537 | -81.37178 | 3036 ft | 221 kts | 92° |
| 2026-04-23 04:31 | 28.64487 | -81.35490 | 3012 ft | 207 kts | 92° |
| 2026-04-23 04:31 | 28.64196 | -81.33971 | 2992 ft | 189 kts | 120° |
| 2026-04-23 04:31 | 28.63313 | -81.32946 | 2989 ft | 182 kts | 151° |
| 2026-04-23 04:32 | 28.62073 | -81.32742 | 2995 ft | 181 kts | 180° |
| 2026-04-23 04:32 | 28.60803 | -81.32836 | 3000 ft | 183 kts | 178° |
| 2026-04-23 04:32 | 28.59506 | -81.32843 | 2901 ft | 187 kts | 176° |
| 2026-04-23 04:32 | 28.58215 | -81.32827 | 2666 ft | 185 kts | 176° |
| 2026-04-23 04:33 | 28.56928 | -81.32815 | 2435 ft | 179 kts | 176° |
| 2026-04-23 04:33 | 28.55721 | -81.32806 | 2199 ft | 169 kts | 175° |
| 2026-04-23 04:33 | 28.54582 | -81.32796 | 1998 ft | 160 kts | 175° |
| 2026-04-23 04:33 | 28.53529 | -81.32787 | 1805 ft | 147 kts | 174° |
| 2026-04-23 04:34 | 28.52521 | -81.32777 | 1615 ft | 141 kts | 173° |
| 2026-04-23 04:34 | 28.51537 | -81.32761 | 1431 ft | 140 kts | 174° |
| 2026-04-23 04:34 | 28.50572 | -81.32752 | 1254 ft | 141 kts | 174° |
| 2026-04-23 04:34 | 28.49583 | -81.32735 | 1075 ft | 142 kts | 175° |
| 2026-04-23 04:35 | 28.48595 | -81.32732 | 890 ft | 143 kts | 175° |
| 2026-04-23 04:35 | 28.47587 | -81.32721 | 681 ft | 144 kts | 176° |
| 2026-04-23 04:35 | 28.46599 | -81.32716 | 481 ft | 142 kts | 177° |
| 2026-04-23 04:35 | 28.45612 | -81.32704 | 287 ft | 140 kts | 177° |
| 2026-04-23 04:36 | 28.44625 | -81.32696 | 126 ft | 140 kts | 178° |
| 2026-04-23 04:36 | 28.43783 | -81.32682 | 106 ft | 95 kts | 180° |
| 2026-04-23 04:36 | 28.43309 | -81.32680 | 106 ft | 43 kts | 179° |
| 2026-04-23 04:36 | 28.43043 | -81.32674 | 107 ft | 15 kts | 179° |
| 2026-04-23 04:37 | 28.42941 | -81.32677 | 107 ft | 9 kts | 200° |
| 2026-04-23 04:37 | 28.42906 | -81.32744 | 107 ft | 11 kts | 279° |
| 2026-04-23 04:37 | 28.42917 | -81.32843 | 107 ft | 9 kts | 271° |
| 2026-04-23 04:37 | 28.42908 | -81.32927 | 106 ft | 9 kts | 259° |
| 2026-04-23 04:38 | 28.42908 | -81.32960 | 106 ft | 0 kts | 271° |
| 2026-04-23 04:38 | 28.42904 | -81.32980 | 106 ft | 5 kts | 246° |
| 2026-04-23 04:38 | 28.42866 | -81.33013 | 106 ft | 8 kts | 213° |
| 2026-04-23 04:38 | 28.42845 | -81.33067 | 106 ft | 5 kts | 265° |
| 2026-04-23 04:39 | 28.42843 | -81.33114 | 106 ft | 5 kts | 269° |
| 2026-04-23 04:39 | 28.42843 | -81.33128 | 106 ft | 0 kts | 270° |